sensor_id;sensor_type;location;lat;lon;timestamp;pressure;altitude;pressure_sealevel;temperature;humidity
71948;BME280;63257;55.082;38.772;2023-08-24T00:00:46;99311.75;;;12.76;100.00
71948;BME280;63257;55.082;38.772;2023-08-24T00:03:12;99316.31;;;12.74;100.00
71948;BME280;63257;55.082;38.772;2023-08-24T00:05:38;99317.59;;;12.68;100.00
71948;BME280;63257;55.082;38.772;2023-08-24T00:08:08;99323.50;;;12.72;100.00
71948;BME280;63257;55.082;38.772;2023-08-24T00:10:35;99317.59;;;12.68;100.00
71948;BME280;63257;55.082;38.772;2023-08-24T00:13:02;99315.28;;;12.64;100.00
71948;BME280;63257;55.082;38.772;2023-08-24T00:15:29;99290.03;;;12.47;100.00
71948;BME280;63257;55.082;38.772;2023-08-24T00:17:55;99302.59;;;12.56;100.00
71948;BME280;63257;55.082;38.772;2023-08-24T00:20:21;99321.31;;;12.66;100.00
71948;BME280;63257;55.082;38.772;2023-08-24T00:22:48;99327.56;;;12.65;100.00
71948;BME280;63257;55.082;38.772;2023-08-24T00:25:14;99291.44;;;12.39;100.00
71948;BME280;63257;55.082;38.772;2023-08-24T00:27:40;99327.91;;;12.60;100.00
71948;BME280;63257;55.082;38.772;2023-08-24T00:30:07;99335.97;;;12.59;100.00
71948;BME280;63257;55.082;38.772;2023-08-24T00:32:36;99328.97;;;12.58;100.00
71948;BME280;63257;55.082;38.772;2023-08-24T00:35:03;99314.13;;;12.55;100.00
71948;BME280;63257;55.082;38.772;2023-08-24T00:37:33;99330.84;;;12.68;100.00
71948;BME280;63257;55.082;38.772;2023-08-24T00:40:06;99334.31;;;12.69;100.00
71948;BME280;63257;55.082;38.772;2023-08-24T00:42:40;99333.66;;;12.78;100.00
71948;BME280;63257;55.082;38.772;2023-08-24T00:45:08;99334.19;;;12.83;100.00
71948;BME280;63257;55.082;38.772;2023-08-24T00:47:37;99331.94;;;12.90;100.00
71948;BME280;63257;55.082;38.772;2023-08-24T00:50:07;99337.00;;;12.93;100.00
71948;BME280;63257;55.082;38.772;2023-08-24T00:52:34;99322.91;;;12.93;100.00
71948;BME280;63257;55.082;38.772;2023-08-24T00:55:02;99333.47;;;13.05;100.00
71948;BME280;63257;55.082;38.772;2023-08-24T00:57:29;99337.59;;;13.10;100.00
71948;BME280;63257;55.082;38.772;2023-08-24T00:59:56;99333.13;;;13.10;100.00
71948;BME280;63257;55.082;38.772;2023-08-24T01:02:23;99316.38;;;13.10;100.00
71948;BME280;63257;55.082;38.772;2023-08-24T01:04:52;99340.03;;;13.24;100.00
71948;BME280;63257;55.082;38.772;2023-08-24T01:07:19;99329.56;;;13.22;100.00
71948;BME280;63257;55.082;38.772;2023-08-24T01:09:46;99338.97;;;13.27;100.00
71948;BME280;63257;55.082;38.772;2023-08-24T01:15:13;99342.56;;;13.38;100.00
71948;BME280;63257;55.082;38.772;2023-08-24T01:17:43;99324.78;;;13.28;100.00
71948;BME280;63257;55.082;38.772;2023-08-24T01:20:10;99349.44;;;13.41;100.00
71948;BME280;63257;55.082;38.772;2023-08-24T01:22:58;99343.16;;;13.42;100.00
71948;BME280;63257;55.082;38.772;2023-08-24T01:25:38;99320.09;;;13.31;100.00
71948;BME280;63257;55.082;38.772;2023-08-24T01:28:06;99340.03;;;13.37;100.00
71948;BME280;63257;55.082;38.772;2023-08-24T01:30:34;99339.66;;;13.42;100.00
71948;BME280;63257;55.082;38.772;2023-08-24T01:33:04;99356.09;;;13.47;100.00
71948;BME280;63257;55.082;38.772;2023-08-24T01:35:31;99344.03;;;13.43;100.00
71948;BME280;63257;55.082;38.772;2023-08-24T01:37:59;99349.91;;;13.46;100.00
71948;BME280;63257;55.082;38.772;2023-08-24T01:43:18;99337.97;;;13.40;100.00
71948;BME280;63257;55.082;38.772;2023-08-24T01:45:47;99337.97;;;13.40;100.00
71948;BME280;63257;55.082;38.772;2023-08-24T01:48:13;99320.09;;;13.31;100.00
71948;BME280;63257;55.082;38.772;2023-08-24T01:50:40;99342.25;;;13.54;100.00
71948;BME280;63257;55.082;38.772;2023-08-24T01:53:07;99346.34;;;13.58;100.00
71948;BME280;63257;55.082;38.772;2023-08-24T01:55:33;99354.22;;;13.60;100.00
71948;BME280;63257;55.082;38.772;2023-08-24T01:57:59;99348.66;;;13.63;100.00
71948;BME280;63257;55.082;38.772;2023-08-24T02:00:25;99355.44;;;13.67;100.00
71948;BME280;63257;55.082;38.772;2023-08-24T02:02:52;99362.44;;;13.68;100.00
71948;BME280;63257;55.082;38.772;2023-08-24T02:05:18;99358.09;;;13.67;100.00
71948;BME280;63257;55.082;38.772;2023-08-24T02:07:50;99354.94;;;13.62;100.00
71948;BME280;63257;55.082;38.772;2023-08-24T02:10:16;99349.38;;;13.65;100.00
71948;BME280;63257;55.082;38.772;2023-08-24T02:12:42;99345.66;;;13.68;100.00
71948;BME280;63257;55.082;38.772;2023-08-24T02:15:08;99332.75;;;13.63;100.00
71948;BME280;63257;55.082;38.772;2023-08-24T02:17:36;99339.66;;;13.77;100.00
71948;BME280;63257;55.082;38.772;2023-08-24T02:20:02;99342.31;;;13.77;100.00
71948;BME280;63257;55.082;38.772;2023-08-24T02:22:31;99336.50;;;13.72;100.00
71948;BME280;63257;55.082;38.772;2023-08-24T02:24:57;99343.16;;;13.78;100.00
71948;BME280;63257;55.082;38.772;2023-08-24T02:27:23;99336.38;;;13.73;100.00
71948;BME280;63257;55.082;38.772;2023-08-24T02:29:51;99347.00;;;13.73;100.00
71948;BME280;63257;55.082;38.772;2023-08-24T02:32:17;99334.56;;;13.63;100.00
71948;BME280;63257;55.082;38.772;2023-08-24T02:34:43;99340.34;;;13.56;100.00
71948;BME280;63257;55.082;38.772;2023-08-24T02:37:09;99346.59;;;13.55;100.00
71948;BME280;63257;55.082;38.772;2023-08-24T02:39:35;99355.41;;;13.56;100.00
71948;BME280;63257;55.082;38.772;2023-08-24T02:42:02;99362.38;;;13.57;100.00
71948;BME280;63257;55.082;38.772;2023-08-24T02:44:28;99341.13;;;13.46;100.00
71948;BME280;63257;55.082;38.772;2023-08-24T02:46:54;99357.81;;;13.59;100.00
71948;BME280;63257;55.082;38.772;2023-08-24T02:49:20;99353.19;;;13.50;100.00
71948;BME280;63257;55.082;38.772;2023-08-24T02:51:46;99351.78;;;13.57;100.00
71948;BME280;63257;55.082;38.772;2023-08-24T02:54:12;99351.06;;;13.55;100.00
71948;BME280;63257;55.082;38.772;2023-08-24T02:56:39;99365.41;;;13.64;100.00
71948;BME280;63257;55.082;38.772;2023-08-24T02:59:05;99366.75;;;13.69;100.00
71948;BME280;63257;55.082;38.772;2023-08-24T03:01:31;99362.53;;;13.67;100.00
71948;BME280;63257;55.082;38.772;2023-08-24T03:03:56;99367.63;;;13.70;100.00
71948;BME280;63257;55.082;38.772;2023-08-24T03:06:24;99364.34;;;13.66;100.00
71948;BME280;63257;55.082;38.772;2023-08-24T03:08:50;99364.09;;;13.69;100.00
71948;BME280;63257;55.082;38.772;2023-08-24T03:11:16;99353.84;;;13.65;100.00
71948;BME280;63257;55.082;38.772;2023-08-24T03:13:42;99350.56;;;13.61;100.00
71948;BME280;63257;55.082;38.772;2023-08-24T03:16:08;99369.91;;;13.74;100.00
71948;BME280;63257;55.082;38.772;2023-08-24T03:18:35;99354.94;;;13.62;100.00
71948;BME280;63257;55.082;38.772;2023-08-24T03:21:03;99370.16;;;13.71;100.00
71948;BME280;63257;55.082;38.772;2023-08-24T03:23:29;99353.28;;;13.72;100.00
71948;BME280;63257;55.082;38.772;2023-08-24T03:25:55;99363.41;;;13.79;100.00
71948;BME280;63257;55.082;38.772;2023-08-24T03:28:22;99384.78;;;13.88;100.00
71948;BME280;63257;55.082;38.772;2023-08-24T03:30:50;99355.22;;;13.82;100.00
71948;BME280;63257;55.082;38.772;2023-08-24T03:33:16;99370.31;;;13.93;100.00
71948;BME280;63257;55.082;38.772;2023-08-24T03:35:42;99364.78;;;13.96;100.00
71948;BME280;63257;55.082;38.772;2023-08-24T03:38:09;99370.31;;;14.04;100.00
71948;BME280;63257;55.082;38.772;2023-08-24T03:40:35;99384.84;;;14.11;100.00
71948;BME280;63257;55.082;38.772;2023-08-24T03:43:02;99365.53;;;14.09;100.00
71948;BME280;63257;55.082;38.772;2023-08-24T03:45:29;99371.69;;;14.10;100.00
71948;BME280;63257;55.082;38.772;2023-08-24T03:47:55;99393.75;;;14.21;100.00
71948;BME280;63257;55.082;38.772;2023-08-24T03:50:21;99374.94;;;14.13;100.00
71948;BME280;63257;55.082;38.772;2023-08-24T03:52:50;99389.41;;;14.20;100.00
71948;BME280;63257;55.082;38.772;2023-08-24T03:55:16;99386.06;;;14.18;100.00
71948;BME280;63257;55.082;38.772;2023-08-24T03:57:45;99395.72;;;14.31;100.00
71948;BME280;63257;55.082;38.772;2023-08-24T04:00:11;99395.97;;;14.28;100.00
71948;BME280;63257;55.082;38.772;2023-08-24T04:02:42;99387.75;;;14.31;100.00
71948;BME280;63257;55.082;38.772;2023-08-24T04:05:14;99378.72;;;14.33;100.00
71948;BME280;63257;55.082;38.772;2023-08-24T04:07:39;99392.22;;;14.53;100.00
71948;BME280;63257;55.082;38.772;2023-08-24T04:10:07;99378.00;;;14.42;100.00
71948;BME280;63257;55.082;38.772;2023-08-24T04:12:33;99401.41;;;14.49;100.00
71948;BME280;63257;55.082;38.772;2023-08-24T04:15:00;99383.06;;;14.46;100.00
71948;BME280;63257;55.082;38.772;2023-08-24T04:17:26;99401.16;;;14.52;100.00
71948;BME280;63257;55.082;38.772;2023-08-24T04:19:52;99397.28;;;14.45;100.00
71948;BME280;63257;55.082;38.772;2023-08-24T04:22:19;99397.28;;;14.56;100.00
71948;BME280;63257;55.082;38.772;2023-08-24T04:24:45;99399.38;;;14.64;100.00
71948;BME280;63257;55.082;38.772;2023-08-24T04:27:11;99394.78;;;14.77;99.81
71948;BME280;63257;55.082;38.772;2023-08-24T04:29:37;99405.03;;;14.82;99.19
71948;BME280;63257;55.082;38.772;2023-08-24T04:32:03;99396.34;;;14.91;98.65
71948;BME280;63257;55.082;38.772;2023-08-24T04:34:30;99380.28;;;14.92;97.79
71948;BME280;63257;55.082;38.772;2023-08-24T04:36:56;99380.88;;;14.85;97.63
71948;BME280;63257;55.082;38.772;2023-08-24T04:39:21;99403.81;;;14.97;97.99
71948;BME280;63257;55.082;38.772;2023-08-24T04:41:47;99402.59;;;15.01;98.35
71948;BME280;63257;55.082;38.772;2023-08-24T04:44:13;99397.66;;;14.97;97.66
71948;BME280;63257;55.082;38.772;2023-08-24T04:46:39;99410.44;;;15.03;97.76
71948;BME280;63257;55.082;38.772;2023-08-24T04:49:05;99395.84;;;14.97;98.28
71948;BME280;63257;55.082;38.772;2023-08-24T04:51:31;99404.38;;;15.12;98.21
71948;BME280;63257;55.082;38.772;2023-08-24T04:53:56;99404.25;;;15.14;97.25
71948;BME280;63257;55.082;38.772;2023-08-24T04:56:22;99391.75;;;15.04;97.09
71948;BME280;63257;55.082;38.772;2023-08-24T04:58:53;99408.84;;;15.23;96.65
71948;BME280;63257;55.082;38.772;2023-08-24T05:01:19;99407.28;;;15.20;96.78
71948;BME280;63257;55.082;38.772;2023-08-24T05:03:45;99406.44;;;15.20;96.53
71948;BME280;63257;55.082;38.772;2023-08-24T05:06:11;99384.00;;;15.01;97.39
71948;BME280;63257;55.082;38.772;2023-08-24T05:08:36;99395.72;;;15.10;97.89
71948;BME280;63257;55.082;38.772;2023-08-24T05:11:10;99397.81;;;15.27;97.50
71948;BME280;63257;55.082;38.772;2023-08-24T05:13:36;99393.31;;;15.39;96.60
71948;BME280;63257;55.082;38.772;2023-08-24T05:16:02;99382.00;;;15.26;96.18
71948;BME280;63257;55.082;38.772;2023-08-24T05:18:27;99388.84;;;15.40;96.21
71948;BME280;63257;55.082;38.772;2023-08-24T05:20:53;99396.81;;;15.40;95.46
71948;BME280;63257;55.082;38.772;2023-08-24T05:23:19;99389.91;;;15.49;95.69
71948;BME280;63257;55.082;38.772;2023-08-24T05:25:45;99399.91;;;15.56;95.22
71948;BME280;63257;55.082;38.772;2023-08-24T05:28:11;99382.19;;;15.46;94.44
71948;BME280;63257;55.082;38.772;2023-08-24T05:30:36;99394.06;;;15.63;94.12
71948;BME280;63257;55.082;38.772;2023-08-24T05:33:02;99399.13;;;15.66;94.30
71948;BME280;63257;55.082;38.772;2023-08-24T05:35:28;99378.63;;;15.56;94.09
71948;BME280;63257;55.082;38.772;2023-08-24T05:37:54;99379.75;;;15.54;93.70
71948;BME280;63257;55.082;38.772;2023-08-24T05:40:19;99403.38;;;15.68;93.43
71948;BME280;63257;55.082;38.772;2023-08-24T05:42:45;99394.47;;;15.58;93.17
71948;BME280;63257;55.082;38.772;2023-08-24T05:45:11;99399.41;;;15.63;93.81
71948;BME280;63257;55.082;38.772;2023-08-24T05:47:37;99404.59;;;15.64;93.67
71948;BME280;63257;55.082;38.772;2023-08-24T05:50:03;99392.25;;;15.63;94.02
71948;BME280;63257;55.082;38.772;2023-08-24T05:52:29;99400.44;;;15.71;93.86
71948;BME280;63257;55.082;38.772;2023-08-24T05:54:55;99393.31;;;15.72;93.30
71948;BME280;63257;55.082;38.772;2023-08-24T05:57:21;99393.00;;;15.65;92.30
71948;BME280;63257;55.082;38.772;2023-08-24T05:59:47;99386.56;;;15.68;92.39
71948;BME280;63257;55.082;38.772;2023-08-24T06:02:12;99384.94;;;15.76;92.39
71948;BME280;63257;55.082;38.772;2023-08-24T06:04:38;99409.00;;;15.86;92.09
71948;BME280;63257;55.082;38.772;2023-08-24T06:07:04;99400.75;;;15.89;92.00
71948;BME280;63257;55.082;38.772;2023-08-24T06:09:30;99401.13;;;15.85;92.66
71948;BME280;63257;55.082;38.772;2023-08-24T06:11:57;99414.56;;;15.83;92.94
71948;BME280;63257;55.082;38.772;2023-08-24T06:14:23;99396.59;;;15.64;92.12
71948;BME280;63257;55.082;38.772;2023-08-24T06:16:48;99407.97;;;15.66;92.13
71948;BME280;63257;55.082;38.772;2023-08-24T06:19:14;99397.00;;;15.59;92.59
71948;BME280;63257;55.082;38.772;2023-08-24T06:21:40;99409.84;;;15.75;93.10
71948;BME280;63257;55.082;38.772;2023-08-24T06:24:06;99424.63;;;15.80;91.45
71948;BME280;63257;55.082;38.772;2023-08-24T06:26:31;99397.00;;;15.59;91.80
71948;BME280;63257;55.082;38.772;2023-08-24T06:28:57;99411.94;;;15.72;92.19
71948;BME280;63257;55.082;38.772;2023-08-24T06:31:23;99396.59;;;15.64;92.98
71948;BME280;63257;55.082;38.772;2023-08-24T06:33:49;99414.47;;;15.73;92.58
71948;BME280;63257;55.082;38.772;2023-08-24T06:36:15;99411.94;;;15.72;93.32
71948;BME280;63257;55.082;38.772;2023-08-24T06:38:41;99397.28;;;15.77;92.79
71948;BME280;63257;55.082;38.772;2023-08-24T06:41:06;99419.97;;;15.93;92.95
71948;BME280;63257;55.082;38.772;2023-08-24T06:43:37;99420.03;;;16.03;93.15
71948;BME280;63257;55.082;38.772;2023-08-24T06:46:06;99428.09;;;15.91;93.17
71948;BME280;63257;55.082;38.772;2023-08-24T06:48:35;99417.13;;;15.73;94.39
71948;BME280;63257;55.082;38.772;2023-08-24T06:51:03;99432.63;;;15.68;95.69
71948;BME280;63257;55.082;38.772;2023-08-24T06:53:29;99418.16;;;15.61;96.65
71948;BME280;63257;55.082;38.772;2023-08-24T06:55:57;99438.91;;;15.67;96.57
71948;BME280;63257;55.082;38.772;2023-08-24T06:58:23;99423.59;;;15.59;95.00
71948;BME280;63257;55.082;38.772;2023-08-24T07:00:49;99436.81;;;15.82;94.88
71948;BME280;63257;55.082;38.772;2023-08-24T07:03:18;99423.66;;;15.81;93.86
71948;BME280;63257;55.082;38.772;2023-08-24T07:05:45;99435.94;;;15.93;91.75
71948;BME280;63257;55.082;38.772;2023-08-24T07:08:12;99445.03;;;16.11;90.64
71948;BME280;63257;55.082;38.772;2023-08-24T07:10:38;99440.28;;;16.36;87.61
71948;BME280;63257;55.082;38.772;2023-08-24T07:13:06;99445.09;;;16.42;87.24
71948;BME280;63257;55.082;38.772;2023-08-24T07:15:33;99445.31;;;16.60;87.65
71948;BME280;63257;55.082;38.772;2023-08-24T07:18:04;99433.47;;;16.43;87.04
71948;BME280;63257;55.082;38.772;2023-08-24T07:20:34;99455.16;;;16.39;87.94
71948;BME280;63257;55.082;38.772;2023-08-24T07:23:00;99436.34;;;16.09;90.22
71948;BME280;63257;55.082;38.772;2023-08-24T07:25:26;99455.22;;;16.27;90.62
71948;BME280;63257;55.082;38.772;2023-08-24T07:27:56;99446.06;;;16.41;88.96
71948;BME280;63257;55.082;38.772;2023-08-24T07:30:26;99450.84;;;16.78;87.12
71948;BME280;63257;55.082;38.772;2023-08-24T07:32:56;99457.44;;;16.95;83.87
71948;BME280;63257;55.082;38.772;2023-08-24T07:35:21;99451.44;;;17.13;82.91
71948;BME280;63257;55.082;38.772;2023-08-24T07:37:51;99452.47;;;17.22;82.34
71948;BME280;63257;55.082;38.772;2023-08-24T07:40:17;99457.75;;;17.12;83.32
71948;BME280;63257;55.082;38.772;2023-08-24T07:42:47;99447.88;;;16.93;84.67
71948;BME280;63257;55.082;38.772;2023-08-24T07:45:14;99462.38;;;16.79;85.82
71948;BME280;63257;55.082;38.772;2023-08-24T07:47:40;99455.94;;;16.82;86.29
71948;BME280;63257;55.082;38.772;2023-08-24T07:50:08;99446.34;;;16.69;86.63
71948;BME280;63257;55.082;38.772;2023-08-24T07:52:33;99435.34;;;16.53;86.54
71948;BME280;63257;55.082;38.772;2023-08-24T07:54:59;99465.97;;;16.68;86.81
71948;BME280;63257;55.082;38.772;2023-08-24T07:57:30;99445.03;;;16.63;86.13
71948;BME280;63257;55.082;38.772;2023-08-24T07:59:58;99444.03;;;16.55;86.25
71948;BME280;63257;55.082;38.772;2023-08-24T08:02:24;99460.78;;;16.67;85.87
71948;BME280;63257;55.082;38.772;2023-08-24T08:04:49;99447.78;;;16.52;85.35
71948;BME280;63257;55.082;38.772;2023-08-24T08:07:15;99462.22;;;16.50;86.14
71948;BME280;63257;55.082;38.772;2023-08-24T08:09:42;99468.59;;;16.37;87.69
71948;BME280;63257;55.082;38.772;2023-08-24T08:12:08;99458.81;;;16.38;87.09
71948;BME280;63257;55.082;38.772;2023-08-24T08:14:34;99454.00;;;16.32;87.71
71948;BME280;63257;55.082;38.772;2023-08-24T08:17:00;99464.19;;;16.48;87.12
71948;BME280;63257;55.082;38.772;2023-08-24T08:19:26;99446.00;;;16.32;86.59
71948;BME280;63257;55.082;38.772;2023-08-24T08:21:53;99464.13;;;16.38;87.00
71948;BME280;63257;55.082;38.772;2023-08-24T08:24:19;99434.25;;;16.34;87.54
71948;BME280;63257;55.082;38.772;2023-08-24T08:26:45;99454.13;;;16.30;88.00
71948;BME280;63257;55.082;38.772;2023-08-24T08:29:11;99465.56;;;16.42;87.74
71948;BME280;63257;55.082;38.772;2023-08-24T08:31:37;99467.13;;;16.44;87.21
71948;BME280;63257;55.082;38.772;2023-08-24T08:34:02;99455.16;;;16.39;87.13
71948;BME280;63257;55.082;38.772;2023-08-24T08:36:30;99467.91;;;16.35;86.86
71948;BME280;63257;55.082;38.772;2023-08-24T08:38:59;99464.97;;;16.17;87.37
71948;BME280;63257;55.082;38.772;2023-08-24T08:41:27;99463.91;;;16.08;90.44
71948;BME280;63257;55.082;38.772;2023-08-24T08:43:56;99459.59;;;16.07;90.01
71948;BME280;63257;55.082;38.772;2023-08-24T08:46:22;99451.06;;;15.92;89.96
71948;BME280;63257;55.082;38.772;2023-08-24T08:48:48;99444.69;;;15.84;90.41
71948;BME280;63257;55.082;38.772;2023-08-24T08:51:17;99466.03;;;15.93;91.78
71948;BME280;63257;55.082;38.772;2023-08-24T08:53:43;99442.16;;;15.82;92.04
71948;BME280;63257;55.082;38.772;2023-08-24T08:56:09;99441.06;;;15.73;91.80
71948;BME280;63257;55.082;38.772;2023-08-24T08:58:36;99462.63;;;15.70;91.68
71948;BME280;63257;55.082;38.772;2023-08-24T09:01:03;99471.81;;;15.66;93.18
71948;BME280;63257;55.082;38.772;2023-08-24T09:03:31;99476.75;;;15.71;94.88
71948;BME280;63257;55.082;38.772;2023-08-24T09:05:57;99456.22;;;15.61;95.99
71948;BME280;63257;55.082;38.772;2023-08-24T09:08:25;99477.84;;;15.68;94.87
71948;BME280;63257;55.082;38.772;2023-08-24T09:10:51;99480.28;;;15.60;96.13
71948;BME280;63257;55.082;38.772;2023-08-24T09:13:17;99461.25;;;15.43;97.05
71948;BME280;63257;55.082;38.772;2023-08-24T09:15:43;99479.72;;;15.45;98.23
71948;BME280;63257;55.082;38.772;2023-08-24T09:18:09;99473.34;;;15.36;99.59
71948;BME280;63257;55.082;38.772;2023-08-24T09:20:35;99478.69;;;15.25;98.67
71948;BME280;63257;55.082;38.772;2023-08-24T09:23:01;99479.97;;;15.42;98.63
71948;BME280;63257;55.082;38.772;2023-08-24T09:25:27;99450.66;;;15.21;98.97
71948;BME280;63257;55.082;38.772;2023-08-24T09:28:00;99479.72;;;15.45;98.33
71948;BME280;63257;55.082;38.772;2023-08-24T09:30:31;99487.53;;;15.69;97.45
71948;BME280;63257;55.082;38.772;2023-08-24T09:33:23;99481.69;;;15.87;95.76
71948;BME280;63257;55.082;38.772;2023-08-24T09:35:53;99491.19;;;16.01;95.67
71948;BME280;63257;55.082;38.772;2023-08-24T09:38:24;99466.78;;;15.96;95.12
71948;BME280;63257;55.082;38.772;2023-08-24T09:40:53;99467.47;;;15.98;93.23
71948;BME280;63257;55.082;38.772;2023-08-24T09:43:21;99485.94;;;16.10;92.52
71948;BME280;63257;55.082;38.772;2023-08-24T09:45:51;99483.53;;;16.07;92.85
71948;BME280;63257;55.082;38.772;2023-08-24T09:48:17;99486.91;;;15.88;92.14
71948;BME280;63257;55.082;38.772;2023-08-24T09:50:51;99462.06;;;15.55;93.16
71948;BME280;63257;55.082;38.772;2023-08-24T09:53:21;99498.63;;;15.86;93.52
71948;BME280;63257;55.082;38.772;2023-08-24T09:55:53;99486.25;;;15.96;93.21
71948;BME280;63257;55.082;38.772;2023-08-24T09:58:20;99491.53;;;16.07;92.87
71948;BME280;63257;55.082;38.772;2023-08-24T10:00:46;99492.78;;;16.24;91.71
71948;BME280;63257;55.082;38.772;2023-08-24T10:03:16;99481.66;;;16.40;91.66
71948;BME280;63257;55.082;38.772;2023-08-24T10:05:52;99482.63;;;16.39;88.65
71948;BME280;63257;55.082;38.772;2023-08-24T10:08:29;99492.22;;;16.31;89.12
71948;BME280;63257;55.082;38.772;2023-08-24T10:10:56;99490.25;;;16.23;89.25
71948;BME280;63257;55.082;38.772;2023-08-24T10:15:55;99492.44;;;15.85;90.08
71948;BME280;63257;55.082;38.772;2023-08-24T10:18:22;99505.19;;;15.70;90.26
71948;BME280;63257;55.082;38.772;2023-08-24T10:20:50;99509.03;;;15.77;91.30
71948;BME280;63257;55.082;38.772;2023-08-24T10:23:19;99520.19;;;15.83;89.42
71948;BME280;63257;55.082;38.772;2023-08-24T10:25:51;99497.19;;;15.82;89.80
71948;BME280;63257;55.082;38.772;2023-08-24T10:28:19;99516.81;;;16.02;89.91
71948;BME280;63257;55.082;38.772;2023-08-24T10:30:47;99505.25;;;16.24;88.82
71948;BME280;63257;55.082;38.772;2023-08-24T10:33:13;99507.63;;;16.48;88.30
71948;BME280;63257;55.082;38.772;2023-08-24T10:35:41;99486.00;;;16.62;86.75
71948;BME280;63257;55.082;38.772;2023-08-24T10:38:07;99469.47;;;16.90;84.87
71948;BME280;63257;55.082;38.772;2023-08-24T10:40:37;99507.59;;;17.21;83.58
71948;BME280;63257;55.082;38.772;2023-08-24T10:43:05;99508.44;;;17.12;81.99
71948;BME280;63257;55.082;38.772;2023-08-24T10:45:55;99503.16;;;17.01;81.21
71948;BME280;63257;55.082;38.772;2023-08-24T10:53:52;99518.09;;;16.40;83.25
71948;BME280;63257;55.082;38.772;2023-08-24T10:56:19;99511.53;;;16.23;83.93
71948;BME280;63257;55.082;38.772;2023-08-24T10:58:46;99498.28;;;16.11;85.71
71948;BME280;63257;55.082;38.772;2023-08-24T11:01:16;99489.50;;;16.00;85.97
71948;BME280;63257;55.082;38.772;2023-08-24T11:03:54;99515.72;;;16.04;85.03
71948;BME280;63257;55.082;38.772;2023-08-24T11:06:26;99495.09;;;15.85;85.18
71948;BME280;63257;55.082;38.772;2023-08-24T11:09:09;99515.03;;;16.02;85.43
71948;BME280;63257;55.082;38.772;2023-08-24T11:11:39;99510.59;;;16.13;85.49
71948;BME280;63257;55.082;38.772;2023-08-24T11:14:19;99506.47;;;16.20;84.92
71948;BME280;63257;55.082;38.772;2023-08-24T11:16:48;99509.00;;;16.21;86.60
71948;BME280;63257;55.082;38.772;2023-08-24T11:19:15;99507.75;;;16.04;85.85
71948;BME280;63257;55.082;38.772;2023-08-24T11:21:43;99509.22;;;15.97;89.05
71948;BME280;63257;55.082;38.772;2023-08-24T11:24:12;99518.50;;;16.03;88.78
71948;BME280;63257;55.082;38.772;2023-08-24T11:26:41;99494.22;;;15.96;87.71
71948;BME280;63257;55.082;38.772;2023-08-24T11:29:07;99484.50;;;16.06;89.93
71948;BME280;63257;55.082;38.772;2023-08-24T11:31:34;99483.34;;;16.20;90.29
71948;BME280;63257;55.082;38.772;2023-08-24T11:34:00;99495.81;;;16.41;88.82
71948;BME280;63257;55.082;38.772;2023-08-24T11:36:25;99499.19;;;16.43;88.29
71948;BME280;63257;55.082;38.772;2023-08-24T11:38:57;99512.78;;;16.40;86.80
71948;BME280;63257;55.082;38.772;2023-08-24T11:41:23;99474.34;;;16.00;87.67
71948;BME280;63257;55.082;38.772;2023-08-24T11:43:49;99504.44;;;16.12;88.31
71948;BME280;63257;55.082;38.772;2023-08-24T11:46:23;99487.34;;;15.93;88.04
71948;BME280;63257;55.082;38.772;2023-08-24T11:48:49;99501.72;;;16.02;89.76
71948;BME280;63257;55.082;38.772;2023-08-24T11:51:15;99503.97;;;16.07;89.26
71948;BME280;63257;55.082;38.772;2023-08-24T11:53:45;99508.72;;;16.03;88.95
71948;BME280;63257;55.082;38.772;2023-08-24T11:56:12;99490.91;;;15.71;90.57
71948;BME280;63257;55.082;38.772;2023-08-24T11:58:39;99508.34;;;15.64;91.14
71948;BME280;63257;55.082;38.772;2023-08-24T12:01:07;99509.78;;;15.68;93.17
71948;BME280;63257;55.082;38.772;2023-08-24T12:03:33;99508.56;;;15.72;93.12
71948;BME280;63257;55.082;38.772;2023-08-24T12:06:13;99509.63;;;15.81;92.04
71948;BME280;63257;55.082;38.772;2023-08-24T12:08:40;99490.66;;;15.86;91.01
71948;BME280;63257;55.082;38.772;2023-08-24T12:11:20;99506.91;;;16.04;90.34
71948;BME280;63257;55.082;38.772;2023-08-24T12:13:51;99512.56;;;16.10;89.28
71948;BME280;63257;55.082;38.772;2023-08-24T12:16:22;99501.91;;;16.10;89.37
71948;BME280;63257;55.082;38.772;2023-08-24T12:18:54;99513.03;;;16.16;88.25
71948;BME280;63257;55.082;38.772;2023-08-24T12:21:22;99513.31;;;16.01;86.30
71948;BME280;63257;55.082;38.772;2023-08-24T12:24:06;99514.06;;;16.03;86.41
71948;BME280;63257;55.082;38.772;2023-08-24T12:26:33;99514.69;;;16.17;85.71
71948;BME280;63257;55.082;38.772;2023-08-24T12:29:03;99510.31;;;16.27;85.60
71948;BME280;63257;55.082;38.772;2023-08-24T12:31:31;99507.38;;;16.30;84.25
71948;BME280;63257;55.082;38.772;2023-08-24T12:34:05;99510.16;;;16.50;83.45
71948;BME280;63257;55.082;38.772;2023-08-24T12:36:33;99508.50;;;16.49;83.58
71948;BME280;63257;55.082;38.772;2023-08-24T12:38:59;99507.31;;;16.62;81.56
71948;BME280;63257;55.082;38.772;2023-08-24T12:41:25;99506.13;;;16.55;81.34
71948;BME280;63257;55.082;38.772;2023-08-24T12:43:51;99508.03;;;16.43;80.44
71948;BME280;63257;55.082;38.772;2023-08-24T12:46:18;99508.81;;;16.34;81.80
71948;BME280;63257;55.082;38.772;2023-08-24T12:48:44;99515.25;;;16.32;81.69
71948;BME280;63257;55.082;38.772;2023-08-24T12:51:10;99511.13;;;16.27;82.75
71948;BME280;63257;55.082;38.772;2023-08-24T12:53:36;99495.91;;;16.30;83.56
71948;BME280;63257;55.082;38.772;2023-08-24T12:56:02;99519.41;;;16.45;82.51
71948;BME280;63257;55.082;38.772;2023-08-24T12:58:28;99513.53;;;16.31;81.53
71948;BME280;63257;55.082;38.772;2023-08-24T13:00:54;99480.78;;;15.98;83.25
71948;BME280;63257;55.082;38.772;2023-08-24T13:03:19;99510.59;;;16.13;82.55